createdAt,value
2022-08-28T00:01:33.942Z,4.18
2022-08-28T00:04:01.068Z,4.85
2022-08-28T00:06:27.974Z,4.65
2022-08-28T00:08:54.557Z,5.07
2022-08-28T00:11:21.194Z,4.68
2022-08-28T00:13:48.210Z,5.25
2022-08-28T00:16:15.141Z,5.43
2022-08-28T00:18:41.598Z,4.93
2022-08-28T00:21:08.029Z,4.55
2022-08-28T00:23:42.890Z,4.18
2022-08-28T00:26:11.166Z,4.40
2022-08-28T00:28:37.645Z,4.88
2022-08-28T00:31:05.250Z,4.25
2022-08-28T00:33:34.128Z,5.00
2022-08-28T00:36:01.472Z,4.45
2022-08-28T00:38:28.694Z,4.40
2022-08-28T00:40:59.341Z,4.60
2022-08-28T00:43:41.631Z,4.65
2022-08-28T00:46:11.992Z,4.95
2022-08-28T00:48:39.341Z,4.95
2022-08-28T00:51:25.457Z,4.68
2022-08-28T00:53:55.576Z,4.50
2022-08-28T00:58:52.031Z,4.88
2022-08-28T01:01:18.853Z,4.35
2022-08-28T01:03:45.586Z,5.13
2022-08-28T01:06:15.118Z,4.85
2022-08-28T01:08:43.548Z,4.20
2022-08-28T01:11:10.851Z,4.90
2022-08-28T01:13:39.338Z,5.25
2022-08-28T01:16:06.333Z,4.50
2022-08-28T01:18:33.151Z,5.30
2022-08-28T01:21:25.156Z,4.50
2022-08-28T01:23:55.455Z,5.32
2022-08-28T01:26:22.555Z,4.82
2022-08-28T01:28:49.021Z,4.85
2022-08-28T01:31:16.246Z,5.28
2022-08-28T01:33:43.822Z,4.85
2022-08-28T01:36:12.159Z,5.10
2022-08-28T01:38:39.849Z,4.82
2022-08-28T01:41:06.364Z,5.35
2022-08-28T01:43:32.820Z,4.57
2022-08-28T01:46:02.601Z,4.82
2022-08-28T01:48:32.846Z,4.63
2022-08-28T01:50:59.493Z,4.97
2022-08-28T01:53:32.621Z,4.82
2022-08-28T01:56:01.116Z,4.50
2022-08-28T01:58:28.315Z,4.90
2022-08-28T02:00:57.451Z,4.47
2022-08-28T02:03:24.088Z,4.55
2022-08-28T02:05:50.842Z,4.63
2022-08-28T02:08:18.276Z,5.10
2022-08-28T02:10:45.011Z,4.40
2022-08-28T02:13:12.530Z,4.22
2022-08-28T02:15:40.560Z,4.53
2022-08-28T02:18:07.140Z,4.25
2022-08-28T02:20:34.027Z,4.70
2022-08-28T02:23:00.501Z,4.88
2022-08-28T02:25:27.694Z,4.63
2022-08-28T02:27:54.983Z,4.82
2022-08-28T02:30:21.460Z,4.63
2022-08-28T02:32:47.925Z,4.60
2022-08-28T02:35:16.543Z,4.43
2022-08-28T02:37:44.364Z,4.78
2022-08-28T02:40:16.928Z,5.30
2022-08-28T02:42:43.798Z,4.50
2022-08-28T02:45:11.775Z,5.10
2022-08-28T02:47:39.928Z,5.40
2022-08-28T02:50:07.378Z,4.60
2022-08-28T02:52:35.251Z,4.70
2022-08-28T02:55:02.007Z,4.85
2022-08-28T02:57:29.901Z,5.00
2022-08-28T02:59:56.539Z,4.85
2022-08-28T03:02:24.486Z,4.95
2022-08-28T03:04:51.629Z,5.03
2022-08-28T03:07:19.769Z,4.45
2022-08-28T03:09:46.280Z,5.05
2022-08-28T03:12:16.949Z,5.03
2022-08-28T03:14:43.672Z,4.55
2022-08-28T03:17:10.138Z,5.03
2022-08-28T03:19:36.568Z,5.03
2022-08-28T03:22:03.141Z,5.40
2022-08-28T03:24:29.680Z,5.00
2022-08-28T03:26:56.158Z,5.00
2022-08-28T03:29:22.958Z,5.40
2022-08-28T03:31:49.393Z,4.45
2022-08-28T03:34:15.826Z,5.20
2022-08-28T03:36:42.274Z,5.00
2022-08-28T03:39:08.676Z,4.70
2022-08-28T03:41:35.253Z,5.05
2022-08-28T03:44:01.898Z,5.40
2022-08-28T03:46:32.901Z,5.13
2022-08-28T03:49:01.232Z,5.20
2022-08-28T03:51:30.037Z,4.97
2022-08-28T03:53:58.354Z,5.30
2022-08-28T03:56:26.674Z,5.30
2022-08-28T03:58:57.314Z,4.97
2022-08-28T04:01:24.274Z,4.88
2022-08-28T04:03:50.738Z,5.22
2022-08-28T04:06:17.383Z,4.80
2022-08-28T04:08:43.904Z,5.15
2022-08-28T04:11:10.731Z,4.60
2022-08-28T04:13:37.172Z,4.97
2022-08-28T04:16:10.568Z,5.65
2022-08-28T04:18:39.465Z,4.97
2022-08-28T04:21:11.261Z,4.93
2022-08-28T04:23:38.795Z,4.65
2022-08-28T04:26:07.067Z,4.72
2022-08-28T04:28:34.197Z,5.18
2022-08-28T04:31:01.111Z,5.03
2022-08-28T04:33:28.451Z,5.53
2022-08-28T04:35:56.030Z,5.82
2022-08-28T04:38:22.499Z,5.07
2022-08-28T04:40:48.999Z,5.05
2022-08-28T04:43:15.453Z,5.10
2022-08-28T04:45:43.622Z,4.25
2022-08-28T04:48:13.578Z,4.40
2022-08-28T04:50:41.646Z,4.32
2022-08-28T04:53:08.254Z,4.78
2022-08-28T04:55:53.684Z,4.53
2022-08-28T04:58:23.750Z,4.50
2022-08-28T05:00:51.849Z,4.68
2022-08-28T05:03:18.400Z,5.03
2022-08-28T05:05:49.834Z,4.45
2022-08-28T05:08:18.478Z,4.75
2022-08-28T05:10:46.349Z,5.18
2022-08-28T05:13:13.439Z,4.75
2022-08-28T05:15:41.165Z,4.57
2022-08-28T05:18:07.765Z,4.78
2022-08-28T05:20:38.724Z,4.80
2022-08-28T05:23:06.310Z,4.70
2022-08-28T05:25:41.902Z,4.35
2022-08-28T05:28:12.292Z,4.80
2022-08-28T05:30:40.333Z,4.18
2022-08-28T05:33:08.224Z,4.32
2022-08-28T05:35:40.198Z,4.15
2022-08-28T05:38:07.022Z,4.90
2022-08-28T05:40:34.258Z,4.80
2022-08-28T05:43:00.762Z,4.80
2022-08-28T05:45:27.268Z,4.22
2022-08-28T05:47:53.974Z,4.68
2022-08-28T05:50:20.414Z,4.75
2022-08-28T05:52:47.431Z,4.82
2022-08-28T05:55:13.952Z,3.88
2022-08-28T05:57:40.887Z,4.35
2022-08-28T06:00:10.219Z,3.95
2022-08-28T06:02:36.678Z,3.95
2022-08-28T06:05:03.383Z,4.15
2022-08-28T06:07:29.881Z,4.57
2022-08-28T06:09:57.056Z,4.60
2022-08-28T06:12:23.578Z,4.13
2022-08-28T06:14:50.077Z,3.78
2022-08-28T06:17:16.569Z,6.45
2022-08-28T06:19:49.990Z,4.05
2022-08-28T06:22:16.484Z,4.10
2022-08-28T06:24:42.945Z,4.00
2022-08-28T06:27:09.377Z,3.88
2022-08-28T06:29:35.836Z,4.45
2022-08-28T06:32:04.781Z,3.28
2022-08-28T06:34:31.350Z,3.63
2022-08-28T06:36:57.961Z,3.47
2022-08-28T06:39:24.392Z,3.42
2022-08-28T06:41:51.292Z,3.65
2022-08-28T06:44:20.110Z,3.90
2022-08-28T06:46:47.992Z,3.75
2022-08-28T06:49:15.087Z,3.47
2022-08-28T06:51:41.789Z,3.78
2022-08-28T06:54:09.284Z,4.10
2022-08-28T06:56:35.929Z,3.42
2022-08-28T06:59:02.460Z,3.10
2022-08-28T07:01:32.892Z,3.20
2022-08-28T07:04:01.893Z,3.33
2022-08-28T07:06:31.668Z,3.47
2022-08-28T07:08:58.137Z,3.28
2022-08-28T07:11:29.880Z,3.55
2022-08-28T07:13:57.224Z,3.57
2022-08-28T07:16:26.319Z,3.58
2022-08-28T07:18:52.966Z,3.05
2022-08-28T07:21:20.430Z,3.13
2022-08-28T07:23:47.038Z,3.55
2022-08-28T07:26:19.924Z,2.97
2022-08-28T07:28:46.650Z,3.22
2022-08-28T07:31:16.154Z,4.00
2022-08-28T07:33:43.540Z,3.30
2022-08-28T07:36:15.846Z,2.92
2022-08-28T07:38:56.386Z,2.63
2022-08-28T07:41:25.777Z,2.92
2022-08-28T07:44:11.951Z,2.58
2022-08-28T07:46:39.272Z,2.60
2022-08-28T07:49:06.931Z,2.65
2022-08-28T07:51:33.460Z,2.92
2022-08-28T07:54:02.180Z,2.55
2022-08-28T07:56:29.960Z,2.75
2022-08-28T07:58:57.772Z,2.63
2022-08-28T08:01:25.148Z,3.08
2022-08-28T08:03:51.666Z,2.55
2022-08-28T08:08:54.716Z,2.95
2022-08-28T08:11:21.176Z,2.75
2022-08-28T08:13:51.053Z,2.75
2022-08-28T08:16:20.224Z,3.00
2022-08-28T08:18:48.640Z,2.20
2022-08-28T08:21:18.259Z,2.88
2022-08-28T08:23:45.062Z,2.75
2022-08-28T08:26:14.114Z,3.13
2022-08-28T08:28:41.371Z,2.33
2022-08-28T08:31:07.830Z,2.85
2022-08-28T08:33:35.204Z,2.50
2022-08-28T08:36:01.714Z,2.85
2022-08-28T08:38:32.127Z,2.63
2022-08-28T08:41:06.391Z,2.45
2022-08-28T08:43:53.040Z,2.85
2022-08-28T08:46:31.808Z,2.53
2022-08-28T08:49:02.885Z,2.53
2022-08-28T08:51:42.214Z,2.38
2022-08-28T08:54:12.247Z,3.15
2022-08-28T08:56:39.635Z,2.72
2022-08-28T08:59:10.779Z,2.90
2022-08-28T09:01:44.581Z,2.50
2022-08-28T09:04:21.685Z,2.83
2022-08-28T09:06:58.376Z,2.78
2022-08-28T09:09:35.471Z,2.55
2022-08-28T09:12:05.502Z,3.00
2022-08-28T09:15:05.442Z,2.63
2022-08-28T09:17:35.578Z,2.88
2022-08-28T09:20:10.361Z,2.38
2022-08-28T09:22:37.931Z,2.58
2022-08-28T09:25:06.179Z,3.22
2022-08-28T09:27:39.291Z,2.58
2022-08-28T09:30:08.650Z,2.47
2022-08-28T09:32:41.498Z,2.35
2022-08-28T09:35:28.219Z,2.40
2022-08-28T09:37:55.560Z,2.67
2022-08-28T09:40:26.767Z,2.45
2022-08-28T09:43:26.633Z,2.78
2022-08-28T09:46:11.862Z,2.58
2022-08-28T09:48:43.522Z,2.22
2022-08-28T09:51:27.969Z,2.60
2022-08-28T09:53:57.364Z,2.45
2022-08-28T09:56:33.365Z,2.40
2022-08-28T09:59:01.403Z,2.22
2022-08-28T10:01:46.275Z,2.40
2022-08-28T10:04:15.898Z,2.38
2022-08-28T10:07:03.563Z,2.60
2022-08-28T10:09:47.707Z,2.38
2022-08-28T10:12:45.431Z,2.70
2022-08-28T10:15:26.356Z,2.97
2022-08-28T10:18:14.743Z,2.30
2022-08-28T10:20:44.039Z,2.63
2022-08-28T10:23:24.701Z,2.40
2022-08-28T10:26:03.368Z,2.13
2022-08-28T10:28:41.193Z,2.30
2022-08-28T10:31:20.641Z,2.30
2022-08-28T10:33:57.682Z,2.58
2022-08-28T10:36:34.637Z,2.63
2022-08-28T10:39:21.213Z,2.30
2022-08-28T10:41:58.816Z,2.17
2022-08-28T10:44:49.275Z,2.03
2022-08-28T10:47:16.109Z,2.38
2022-08-28T10:49:45.525Z,1.90
2022-08-28T10:52:25.913Z,2.20
2022-08-28T10:55:04.905Z,2.70
2022-08-28T10:57:59.277Z,2.50
2022-08-28T11:00:27.853Z,2.40
2022-08-28T11:03:00.945Z,2.10
2022-08-28T11:05:32.618Z,2.30
2022-08-28T11:08:05.303Z,2.35
2022-08-28T11:10:38.643Z,2.53
2022-08-28T11:13:06.868Z,2.20
2022-08-28T11:15:37.016Z,2.45
2022-08-28T11:18:15.868Z,2.47
2022-08-28T11:20:54.003Z,2.05
2022-08-28T11:23:24.479Z,2.33
2022-08-28T11:25:58.977Z,2.20
2022-08-28T11:28:25.588Z,2.33
2022-08-28T11:30:57.974Z,2.45
2022-08-28T11:33:52.349Z,2.30
2022-08-28T11:36:21.563Z,2.67
2022-08-28T11:38:50.828Z,2.30
2022-08-28T11:41:24.345Z,2.35
2022-08-28T11:44:13.778Z,1.92
2022-08-28T11:46:45.425Z,2.17
2022-08-28T11:49:34.565Z,2.50
2022-08-28T11:52:14.926Z,2.10
2022-08-28T11:54:50.468Z,2.17
2022-08-28T12:00:46.302Z,2.20
2022-08-28T12:03:15.735Z,2.08
2022-08-28T12:05:47.900Z,2.20
2022-08-28T12:08:47.555Z,1.85
2022-08-28T12:11:41.990Z,2.13
2022-08-28T12:14:27.089Z,1.83
2022-08-28T12:16:59.556Z,1.92
2022-08-28T12:19:55.239Z,2.28
2022-08-28T12:22:42.238Z,2.28
2022-08-28T12:25:19.770Z,1.90
2022-08-28T12:27:46.544Z,1.90
2022-08-28T12:30:30.167Z,2.28
2022-08-28T12:33:06.255Z,1.90
2022-08-28T12:35:32.689Z,1.95
2022-08-28T12:38:02.499Z,2.08
2022-08-28T12:40:37.581Z,2.38
2022-08-28T12:43:07.477Z,2.03
2022-08-28T12:45:38.469Z,1.90
2022-08-28T12:48:26.202Z,2.03
2022-08-28T12:51:08.427Z,2.03
2022-08-28T12:53:41.988Z,1.88
2022-08-28T12:56:14.085Z,2.05
2022-08-28T12:58:41.703Z,1.73
2022-08-28T13:01:33.401Z,1.92
2022-08-28T13:04:03.514Z,1.90
2022-08-28T13:06:36.560Z,1.65
2022-08-28T13:09:14.785Z,1.70
2022-08-28T13:11:49.094Z,1.92
2022-08-28T13:14:35.325Z,2.35
2022-08-28T13:17:01.793Z,1.60
2022-08-28T13:19:30.930Z,1.80
2022-08-28T13:22:29.405Z,1.73
2022-08-28T13:25:00.540Z,1.55
2022-08-28T13:27:27.369Z,1.65
2022-08-28T13:30:00.095Z,1.70
2022-08-28T13:32:29.383Z,1.73
2022-08-28T13:35:31.378Z,1.80
2022-08-28T13:38:00.225Z,1.70
2022-08-28T13:43:19.619Z,1.58
2022-08-28T13:45:48.587Z,1.58
2022-08-28T13:48:17.869Z,2.13
2022-08-28T13:50:47.349Z,2.15
2022-08-28T13:53:15.964Z,1.75
2022-08-28T13:55:42.459Z,2.13
2022-08-28T13:58:08.869Z,2.05
2022-08-28T14:00:38.518Z,1.70
2022-08-28T14:03:23.874Z,1.60
2022-08-28T14:05:50.348Z,1.70
2022-08-28T14:08:16.823Z,2.03
2022-08-28T14:10:43.217Z,1.50
2022-08-28T14:13:09.726Z,1.90
2022-08-28T14:15:36.230Z,1.58
2022-08-28T14:18:02.732Z,2.05
2022-08-28T14:20:29.241Z,1.52
2022-08-28T14:22:55.662Z,1.90
2022-08-28T14:25:22.089Z,1.92
2022-08-28T14:27:48.737Z,1.67
2022-08-28T14:30:15.507Z,1.70
2022-08-28T14:32:42.097Z,2.10
2022-08-28T14:35:09.189Z,1.70
2022-08-28T14:37:35.741Z,1.50
2022-08-28T14:40:02.291Z,1.83
2022-08-28T14:42:28.858Z,2.00
2022-08-28T14:44:55.275Z,1.92
2022-08-28T14:47:21.758Z,2.13
2022-08-28T14:49:48.533Z,1.80
2022-08-28T14:52:15.054Z,1.75
2022-08-28T14:54:41.482Z,1.70
2022-08-28T14:57:07.895Z,1.65
2022-08-28T14:59:34.460Z,1.80
2022-08-28T15:02:01.706Z,1.50
2022-08-28T15:04:37.506Z,1.60
2022-08-28T15:07:07.790Z,1.85
2022-08-28T15:09:35.943Z,1.63
2022-08-28T15:12:02.585Z,1.60
2022-08-28T15:14:28.994Z,1.50
2022-08-28T15:16:55.472Z,1.85
2022-08-28T15:19:23.420Z,1.58
2022-08-28T15:21:54.610Z,2.00
2022-08-28T15:24:23.719Z,1.90
2022-08-28T15:26:50.692Z,1.88
2022-08-28T15:29:17.323Z,1.98
2022-08-28T15:31:47.148Z,1.90
2022-08-28T15:34:16.330Z,1.70
2022-08-28T15:36:43.685Z,1.70
2022-08-28T15:39:29.878Z,1.65
2022-08-28T15:41:57.068Z,1.55
2022-08-28T15:44:24.108Z,1.70
2022-08-28T15:46:54.042Z,1.60
2022-08-28T15:49:21.024Z,1.60
2022-08-28T15:51:50.597Z,1.80
2022-08-28T15:54:17.312Z,1.80
2022-08-28T15:56:43.737Z,1.88
2022-08-28T15:59:11.112Z,2.08
2022-08-28T16:01:38.383Z,2.03
2022-08-28T16:04:06.514Z,1.65
2022-08-28T16:06:34.231Z,1.65
2022-08-28T16:09:00.655Z,1.70
2022-08-28T16:11:27.899Z,2.20
2022-08-28T16:13:58.919Z,1.63
2022-08-28T16:16:25.452Z,1.80
2022-08-28T16:18:54.353Z,1.90
2022-08-28T16:21:20.804Z,1.92
2022-08-28T16:23:48.282Z,2.10
2022-08-28T16:26:15.804Z,1.83
2022-08-28T16:28:44.591Z,2.40
2022-08-28T16:31:19.816Z,1.90
2022-08-28T16:33:48.173Z,2.15
2022-08-28T16:36:15.624Z,1.75
2022-08-28T16:38:43.657Z,1.92
2022-08-28T16:41:19.038Z,1.83
2022-08-28T16:43:46.237Z,1.67
2022-08-28T16:46:16.666Z,1.80
2022-08-28T16:48:44.178Z,1.80
2022-08-28T16:51:11.342Z,1.80
2022-08-28T16:53:40.533Z,1.83
2022-08-28T16:56:08.883Z,2.17
2022-08-28T16:58:36.721Z,1.77
2022-08-28T17:01:04.621Z,2.38
2022-08-28T17:03:32.953Z,2.05
2022-08-28T17:06:03.558Z,2.30
2022-08-28T17:08:30.004Z,2.47
2022-08-28T17:10:56.665Z,1.80
2022-08-28T17:13:25.831Z,1.70
2022-08-28T17:15:52.534Z,2.25
2022-08-28T17:18:19.184Z,2.03
2022-08-28T17:21:04.333Z,1.98
2022-08-28T17:23:30.742Z,2.33
2022-08-28T17:26:00.195Z,1.92
2022-08-28T17:28:26.628Z,2.00
2022-08-28T17:30:53.117Z,1.90
2022-08-28T17:33:19.578Z,2.40
2022-08-28T17:35:52.025Z,1.95
2022-08-28T17:38:18.612Z,1.80
2022-08-28T17:40:45.001Z,2.40
2022-08-28T17:43:11.822Z,2.30
2022-08-28T17:45:38.208Z,2.20
2022-08-28T17:48:05.137Z,2.53
2022-08-28T17:50:31.578Z,2.70
2022-08-28T17:52:57.979Z,2.50
2022-08-28T17:55:24.425Z,2.88
2022-08-28T17:57:50.939Z,3.13
2022-08-28T18:00:18.214Z,2.92
2022-08-28T18:02:45.133Z,2.63
2022-08-28T18:05:14.338Z,2.90
2022-08-28T18:07:40.974Z,2.65
2022-08-28T18:10:09.466Z,2.60
2022-08-28T18:12:35.933Z,2.75
2022-08-28T18:15:03.959Z,2.95
2022-08-28T18:17:30.457Z,2.83
2022-08-28T18:19:57.391Z,2.92
2022-08-28T18:22:28.982Z,3.17
2022-08-28T18:24:56.162Z,3.47
2022-08-28T18:27:23.233Z,3.22
2022-08-28T18:29:49.716Z,3.20
2022-08-28T18:32:16.221Z,3.58
2022-08-28T18:34:42.645Z,3.60
2022-08-28T18:37:09.529Z,3.60
2022-08-28T18:39:36.029Z,3.80
2022-08-28T18:42:02.475Z,4.30
2022-08-28T18:44:29.626Z,4.10
2022-08-28T18:46:56.112Z,4.32
2022-08-28T18:49:22.766Z,4.38
2022-08-28T18:51:49.245Z,4.25
2022-08-28T18:54:18.338Z,4.82
2022-08-28T18:56:46.042Z,4.60
2022-08-28T18:59:15.141Z,4.28
2022-08-28T19:01:41.765Z,5.13
2022-08-28T19:04:08.414Z,4.57
2022-08-28T19:06:34.916Z,4.85
2022-08-28T19:09:01.407Z,4.68
2022-08-28T19:11:29.956Z,4.57
2022-08-28T19:13:56.378Z,4.63
2022-08-28T19:16:22.803Z,4.40
2022-08-28T19:18:51.403Z,4.20
2022-08-28T19:21:19.803Z,4.60
2022-08-28T19:23:53.854Z,4.60
2022-08-28T19:26:23.736Z,4.80
2022-08-28T19:28:50.557Z,4.47
2022-08-28T19:31:17.568Z,4.20
2022-08-28T19:33:46.547Z,4.40
2022-08-28T19:36:13.635Z,3.95
2022-08-28T19:38:40.552Z,3.95
2022-08-28T19:41:08.738Z,3.95
2022-08-28T19:43:42.994Z,3.80
2022-08-28T19:46:18.413Z,3.40
2022-08-28T19:48:48.704Z,4.15
2022-08-28T19:51:22.198Z,3.72
2022-08-28T19:53:56.788Z,3.58
2022-08-28T19:56:27.024Z,3.40
2022-08-28T19:58:54.692Z,3.63
2022-08-28T20:01:21.174Z,3.67
2022-08-28T20:03:47.647Z,4.20
2022-08-28T20:06:14.080Z,3.47
2022-08-28T20:08:40.560Z,3.30
2022-08-28T20:11:07.074Z,3.40
2022-08-28T20:13:33.540Z,3.47
2022-08-28T20:16:03.950Z,3.53
2022-08-28T20:18:30.456Z,2.88
2022-08-28T20:20:56.853Z,3.38
2022-08-28T20:23:23.260Z,3.28
2022-08-28T20:25:51.430Z,3.42
2022-08-28T20:28:19.081Z,2.65
2022-08-28T20:30:46.814Z,2.88
2022-08-28T20:33:13.759Z,3.15
2022-08-28T20:35:40.312Z,3.33
2022-08-28T20:38:07.027Z,3.40
2022-08-28T20:40:33.576Z,3.47
2022-08-28T20:43:00.699Z,3.25
2022-08-28T20:45:27.188Z,3.85
2022-08-28T20:47:53.634Z,3.15
2022-08-28T20:50:20.541Z,3.83
2022-08-28T20:52:46.949Z,3.70
2022-08-28T20:55:14.888Z,2.97
2022-08-28T20:57:41.596Z,3.40
2022-08-28T21:00:10.072Z,3.10
2022-08-28T21:02:36.785Z,3.70
2022-08-28T21:05:04.710Z,3.35
2022-08-28T21:07:33.360Z,3.47
2022-08-28T21:10:07.041Z,3.40
2022-08-28T21:12:35.610Z,3.38
2022-08-28T21:15:02.357Z,3.30
2022-08-28T21:17:30.287Z,3.63
2022-08-28T21:19:59.163Z,3.78
2022-08-28T21:22:25.658Z,3.42
2022-08-28T21:24:52.255Z,3.00
2022-08-28T21:27:18.838Z,3.13
2022-08-28T21:29:45.937Z,3.58
2022-08-28T21:32:12.887Z,3.45
2022-08-28T21:34:39.547Z,3.22
2022-08-28T21:37:06.392Z,3.38
2022-08-28T21:39:33.047Z,3.40
2022-08-28T21:41:59.565Z,3.55
2022-08-28T21:44:25.980Z,3.40
2022-08-28T21:46:52.603Z,3.25
2022-08-28T21:49:19.214Z,3.25
2022-08-28T21:51:45.787Z,3.05
2022-08-28T21:54:12.197Z,3.35
2022-08-28T21:56:38.765Z,3.65
2022-08-28T21:59:05.212Z,3.50
2022-08-28T22:01:31.866Z,3.55
2022-08-28T22:03:58.431Z,3.28
2022-08-28T22:06:26.363Z,3.58
2022-08-28T22:08:53.754Z,3.58
2022-08-28T22:11:21.137Z,3.50
2022-08-28T22:13:52.216Z,3.75
2022-08-28T22:16:18.675Z,3.40
2022-08-28T22:18:45.119Z,3.58
2022-08-28T22:21:32.940Z,3.83
2022-08-28T22:23:59.400Z,4.15
2022-08-28T22:26:26.096Z,3.40
2022-08-28T22:28:52.825Z,3.42
2022-08-28T22:31:19.577Z,3.22
2022-08-28T22:33:46.015Z,3.20
2022-08-28T22:36:13.049Z,3.25
2022-08-28T22:38:41.063Z,3.35
2022-08-28T22:41:15.370Z,3.33
2022-08-28T22:43:41.866Z,3.30
2022-08-28T22:46:09.356Z,3.70
2022-08-28T22:48:36.021Z,3.47
2022-08-28T22:51:06.557Z,3.28
2022-08-28T22:53:33.333Z,3.42
2022-08-28T22:56:00.714Z,3.30
2022-08-28T22:58:29.487Z,3.38
2022-08-28T23:00:57.887Z,3.22
2022-08-28T23:03:24.653Z,4.53
2022-08-28T23:05:51.450Z,3.60
2022-08-28T23:08:18.548Z,3.20
2022-08-28T23:10:58.435Z,3.53
2022-08-28T23:13:25.721Z,3.45
2022-08-28T23:15:52.209Z,3.95
2022-08-28T23:18:18.624Z,4.10
2022-08-28T23:20:45.075Z,3.60
2022-08-28T23:23:11.910Z,3.40
2022-08-28T23:25:38.525Z,3.70
2022-08-28T23:28:06.604Z,3.50
2022-08-28T23:30:33.459Z,3.63
2022-08-28T23:32:59.954Z,3.47
2022-08-28T23:35:26.507Z,3.25
2022-08-28T23:37:52.924Z,3.67
2022-08-28T23:40:22.225Z,3.63
2022-08-28T23:42:48.957Z,3.30
2022-08-28T23:45:17.199Z,3.67
2022-08-28T23:47:43.979Z,3.80
2022-08-28T23:50:16.890Z,3.70
2022-08-28T23:52:44.241Z,3.55
2022-08-28T23:55:11.857Z,3.85
2022-08-28T23:57:38.397Z,3.58
